Terminal Aerodrome Forecast
Issued by NWS Denver/Boulder, CO

Home | Current Version | Previous Version | Text Only | Print | Product List | Glossary On
Versions: 1 2 3 4 5 6 7 8 9 10 11 12 13 14 15 16 17 18 19 20 21 22 23 24 25 26 27 28 29 30 31 32 33 34 35 36 37 38 39 40 41 42 43 44 45 46 47 48 49 50
000
FTUS45 KBOU 111132
TAFDEN
TAF
KDEN 111132Z 1112/1218 36008KT P6SM SCT090 BKN180
     FM111800 04010KT P6SM SCT090 BKN180
     FM112000 06012KT P6SM VCTS SCT070CB BKN120
      TEMPO 1121/1201 VRB15G25KT -TSRA BKN070CB
     FM120100 32009KT P6SM SCT090 BKN140 PROB30 1201/1205 -SHRA
      BKN090=

USA.gov is the U.S. government's official web portal to all federal, state and local government web resources and services.